Time;durP1;ratioP1;P1;durP2;ratioP2;P2;SDS_P1;SDS_P2;PMS_P1;PMS_P2;Temp;Humidity;BMP_temperature;BMP_pressure;BME280_temperature;BME280_humidity;BME280_pressure;Samples;Min_cycle;Max_cycle;Signal;HPM_P1;HPM_P2
2023/06/11 00:02:24;;;;;;;20.65;10.40;;;;;;;21.49;69.67;101306.44;4984435;28;20086;-79
2023/06/11 00:04:50;;;;;;;21.77;10.60;;;;;;;21.44;69.50;101303.03;4986789;28;20113;-81
2023/06/11 00:07:17;;;;;;;23.40;10.93;;;;;;;21.41;68.95;101299.50;4984603;28;20085;-78
2023/06/11 00:09:42;;;;;;;21.25;10.73;;;;;;;21.25;69.88;101299.16;4987364;28;20038;-80
2023/06/11 00:12:08;;;;;;;22.23;10.60;;;;;;;21.15;71.73;101297.69;4983035;28;20537;-62
2023/06/11 00:14:33;;;;;;;22.50;10.65;;;;;;;21.17;70.89;101295.84;4986531;28;20134;-61
2023/06/11 00:16:59;;;;;;;22.13;11.52;;;;;;;21.07;71.31;101299.75;4985159;28;20034;-61
2023/06/11 00:19:28;;;;;;;21.95;11.05;;;;;;;20.92;73.40;101297.56;4985274;28;20061;-61
2023/06/11 00:21:56;;;;;;;21.08;11.18;;;;;;;20.88;73.38;101300.34;4985789;28;20030;-60
2023/06/11 00:24:22;;;;;;;20.70;11.00;;;;;;;20.81;75.46;101287.13;4984723;28;20038;-61
2023/06/11 00:26:47;;;;;;;22.05;11.98;;;;;;;20.76;75.43;101291.78;4986725;28;20030;-65
2023/06/11 00:29:13;;;;;;;22.05;11.48;;;;;;;20.79;75.76;101294.38;4983787;28;20114;-64
2023/06/11 00:31:38;;;;;;;21.48;11.50;;;;;;;20.72;76.83;101291.00;4987029;28;20042;-62
2023/06/11 00:34:04;;;;;;;22.42;12.10;;;;;;;20.58;77.70;101286.03;4984386;28;20481;-61
2023/06/11 00:36:29;;;;;;;22.23;12.35;;;;;;;20.61;77.99;101287.75;4985750;28;20035;-62
2023/06/11 00:38:55;;;;;;;22.50;12.25;;;;;;;20.53;79.23;101290.63;4984564;28;20030;-61
2023/06/11 00:41:24;;;;;;;21.48;12.30;;;;;;;20.51;78.86;101290.69;4984631;28;20031;-65
2023/06/11 00:43:52;;;;;;;21.77;12.57;;;;;;;20.48;80.87;101290.78;4986074;28;20018;-62
2023/06/11 00:46:18;;;;;;;20.65;11.85;;;;;;;20.47;80.16;101283.66;4983805;28;20031;-65
2023/06/11 00:48:43;;;;;;;22.73;12.48;;;;;;;20.37;82.17;101288.44;4986851;28;20542;-64
2023/06/11 00:51:10;;;;;;;20.92;12.27;;;;;;;20.31;84.08;101288.59;4983192;28;20081;-65
2023/06/11 00:53:36;;;;;;;22.23;13.15;;;;;;;20.29;83.61;101300.31;4986112;28;20493;-61
2023/06/11 00:56:01;;;;;;;22.83;13.00;;;;;;;20.24;83.82;101288.81;4984672;28;20034;-65
2023/06/11 00:58:27;;;;;;;22.83;12.85;;;;;;;20.19;84.32;101291.66;4984813;28;20061;-64
2023/06/11 01:00:57;;;;;;;22.27;13.13;;;;;;;20.19;84.17;101288.97;4985438;28;20034;-61
2023/06/11 01:03:28;;;;;;;23.63;13.60;;;;;;;20.12;85.71;101293.59;4984384;28;20038;-64
2023/06/11 01:06:04;;;;;;;22.42;12.90;;;;;;;20.08;86.72;101291.06;4985077;28;20084;-61
2023/06/11 01:08:38;;;;;;;21.90;12.93;;;;;;;19.98;88.51;101295.78;4984810;28;20031;-60
2023/06/11 01:11:08;;;;;;;23.73;13.32;;;;;;;19.95;90.15;101288.75;4983658;28;20069;-64
2023/06/11 01:13:36;;;;;;;24.45;14.00;;;;;;;19.91;90.89;101296.91;4985551;28;20501;-81
2023/06/11 01:16:08;;;;;;;25.48;13.82;;;;;;;19.81;92.24;101294.47;4983734;28;20037;-74
2023/06/11 01:18:46;;;;;;;22.92;13.90;;;;;;;19.73;94.77;101296.47;4985169;28;20402;-77
2023/06/11 01:21:17;;;;;;;22.92;14.23;;;;;;;19.65;96.47;101296.66;4977897;28;20030;-81
2023/06/11 01:24:11;;;;;;;22.77;13.75;;;;;;;19.69;95.60;101300.16;4986137;28;20161;-78
2023/06/11 01:27:05;;;;;;;22.98;14.35;;;;;;;19.72;92.52;101294.69;4983967;28;20027;-76
2023/06/11 01:29:35;;;;;;;23.77;14.43;;;;;;;19.57;98.46;101297.75;4983542;28;20034;-80
2023/06/11 01:32:02;;;;;;;23.80;14.07;;;;;;;19.57;99.95;101298.66;4983955;28;20034;-80
2023/06/11 01:34:27;;;;;;;22.90;13.95;;;;;;;19.54;100.00;101298.72;4984158;28;20088;-77
2023/06/11 01:36:53;;;;;;;24.80;14.40;;;;;;;19.48;100.00;101302.47;4984600;28;20058;-80
2023/06/11 01:39:19;;;;;;;22.65;14.02;;;;;;;19.47;100.00;101297.13;4982922;28;20477;-78
2023/06/11 01:41:44;;;;;;;23.70;14.98;;;;;;;19.34;100.00;101296.56;4985832;28;20026;-79
2023/06/11 01:44:10;;;;;;;22.35;14.50;;;;;;;19.29;100.00;101295.78;4982344;28;20545;-80
2023/06/11 01:46:35;;;;;;;23.17;14.48;;;;;;;19.27;100.00;101300.31;4985240;28;20067;-80
2023/06/11 01:49:01;;;;;;;24.33;15.02;;;;;;;19.22;100.00;101305.81;4983405;28;20053;-77
2023/06/11 01:51:26;;;;;;;22.80;14.85;;;;;;;19.23;100.00;101294.13;4983658;28;20027;-78
2023/06/11 01:53:54;;;;;;;23.67;15.18;;;;;;;19.21;100.00;101295.09;4984705;28;20026;-65
2023/06/11 01:56:20;;;;;;;23.38;15.23;;;;;;;19.22;100.00;101299.53;4982765;28;20363;-64
2023/06/11 01:58:46;;;;;;;23.05;15.30;;;;;;;19.22;100.00;101303.13;4985275;28;20033;-65
2023/06/11 02:01:12;;;;;;;22.95;15.05;;;;;;;19.13;100.00;101301.53;4982463;28;20027;-61
2023/06/11 02:03:38;;;;;;;25.08;15.25;;;;;;;19.13;100.00;101304.22;4985032;28;20119;-65
2023/06/11 02:06:03;;;;;;;24.52;15.18;;;;;;;19.08;100.00;101302.56;4981684;28;20473;-61
2023/06/11 02:08:29;;;;;;;24.92;16.05;;;;;;;19.08;100.00;101308.78;4984234;28;20069;-64
2023/06/11 02:10:54;;;;;;;25.08;16.00;;;;;;;18.97;100.00;101302.81;4984004;28;20385;-66
2023/06/11 02:13:20;;;;;;;23.27;15.80;;;;;;;19.01;100.00;101306.31;4982849;28;20065;-63
2023/06/11 02:15:45;;;;;;;24.58;15.93;;;;;;;18.94;100.00;101306.44;4985607;28;20161;-66
2023/06/11 02:18:10;;;;;;;25.85;16.02;;;;;;;18.88;100.00;101300.34;4981927;28;20069;-64
2023/06/11 02:20:36;;;;;;;24.88;16.02;;;;;;;18.77;100.00;101301.44;4983614;28;20047;-64
2023/06/11 02:23:03;;;;;;;23.52;15.70;;;;;;;18.68;100.00;101298.09;4983008;28;20045;-64
2023/06/11 02:25:28;;;;;;;23.38;15.65;;;;;;;18.68;100.00;101303.44;4983590;28;20037;-64
2023/06/11 02:27:54;;;;;;;24.45;16.23;;;;;;;18.72;100.00;101303.31;4984125;28;20018;-64
2023/06/11 02:30:19;;;;;;;25.58;16.55;;;;;;;18.74;100.00;101304.19;4982582;28;20039;-65
2023/06/11 02:32:45;;;;;;;25.00;16.88;;;;;;;18.67;100.00;101302.56;4985198;28;20093;-63
2023/06/11 02:35:11;;;;;;;24.30;16.02;;;;;;;18.67;100.00;101296.31;4978072;28;20039;-63
2023/06/11 02:37:36;;;;;;;23.30;15.80;;;;;;;18.60;100.00;101296.44;4984503;28;20026;-77
2023/06/11 02:40:02;;;;;;;24.33;16.10;;;;;;;18.63;100.00;101300.88;4983022;28;20499;-79
2023/06/11 02:42:27;;;;;;;23.58;15.90;;;;;;;18.66;100.00;101300.78;4983554;28;20074;-81
2023/06/11 02:44:53;;;;;;;24.20;16.60;;;;;;;18.58;100.00;101297.41;4984007;28;20077;-70
2023/06/11 02:47:18;;;;;;;24.00;16.13;;;;;;;18.54;100.00;101306.44;4981990;28;20030;-74
2023/06/11 02:49:43;;;;;;;23.77;16.13;;;;;;;18.47;100.00;101306.53;4985154;28;20030;-76
2023/06/11 02:52:09;;;;;;;23.92;15.93;;;;;;;18.45;100.00;101296.81;4981788;28;20062;-75
2023/06/11 02:54:34;;;;;;;25.10;17.55;;;;;;;18.42;100.00;101299.50;4984255;28;20078;-73
2023/06/11 02:57:00;;;;;;;26.45;16.77;;;;;;;18.27;100.00;101303.41;4983295;28;20026;-82
2023/06/11 02:59:25;;;;;;;24.58;16.88;;;;;;;18.20;100.00;101307.09;4982726;28;20474;-80
2023/06/11 03:01:50;;;;;;;24.60;16.90;;;;;;;18.16;100.00;101305.41;4984934;28;20117;-80
2023/06/11 03:04:16;;;;;;;24.17;16.80;;;;;;;18.11;100.00;101303.72;4985270;28;20026;-80
2023/06/11 03:06:41;;;;;;;24.67;16.85;;;;;;;18.07;100.00;101307.38;4988580;28;20026;-74
2023/06/11 03:09:06;;;;;;;26.92;18.10;;;;;;;18.06;100.00;101304.72;4985950;28;20085;-77
2023/06/11 03:11:32;;;;;;;25.83;17.67;;;;;;;17.98;100.00;101307.53;4985989;28;20058;-77
2023/06/11 03:13:57;;;;;;;24.63;17.50;;;;;;;17.99;100.00;101303.94;4986790;28;20121;-74
2023/06/11 03:16:23;;;;;;;25.40;17.73;;;;;;;17.90;100.00;101301.47;4985987;28;20035;-76
2023/06/11 03:18:48;;;;;;;25.13;18.25;;;;;;;17.89;100.00;101308.56;4986637;28;20042;-78
2023/06/11 03:21:13;;;;;;;25.08;17.50;;;;;;;17.87;100.00;101310.38;4984985;28;20030;-74
2023/06/11 03:23:39;;;;;;;26.60;18.23;;;;;;;17.90;100.00;101314.84;4988151;28;20095;-72
2023/06/11 03:26:04;;;;;;;26.17;18.45;;;;;;;17.89;100.00;101305.88;4985777;28;20026;-77
2023/06/11 03:28:30;;;;;;;27.65;18.80;;;;;;;17.81;100.00;101309.59;4986765;28;20040;-80
2023/06/11 03:30:55;;;;;;;24.30;17.40;;;;;;;17.73;100.00;101315.97;4986898;28;20377;-82
2023/06/11 03:33:20;;;;;;;27.38;18.50;;;;;;;17.72;100.00;101316.00;4985355;28;20039;-82
2023/06/11 03:35:46;;;;;;;25.45;18.23;;;;;;;17.72;100.00;101316.91;4988201;28;20019;-80
2023/06/11 03:38:11;;;;;;;25.65;18.15;;;;;;;17.76;100.00;101310.56;4980668;28;20031;-79
2023/06/11 03:40:36;;;;;;;26.17;18.33;;;;;;;17.73;100.00;101310.63;4987273;28;20125;-84
2023/06/11 03:43:02;;;;;;;27.13;19.27;;;;;;;17.74;100.00;101314.19;4986019;28;20117;-82
2023/06/11 03:45:27;;;;;;;27.25;19.70;;;;;;;17.78;100.00;101322.13;4985987;28;20042;-81
2023/06/11 03:47:55;;;;;;;25.38;18.63;;;;;;;17.74;100.00;101320.41;4986891;28;20196;-80
2023/06/11 03:50:24;;;;;;;26.00;19.30;;;;;;;17.76;100.00;101323.06;4985184;28;20027;-72
2023/06/11 03:52:50;;;;;;;26.00;18.70;;;;;;;17.68;100.00;101315.19;4987304;28;20030;-81
2023/06/11 03:55:15;;;;;;;28.35;19.90;;;;;;;17.71;100.00;101314.25;4983084;28;20038;-82
2023/06/11 03:57:41;;;;;;;27.95;19.35;;;;;;;17.75;100.00;101326.63;4987693;28;20363;-81
2023/06/11 04:00:07;;;;;;;26.85;19.42;;;;;;;17.72;100.00;101316.91;4984685;28;20109;-82
2023/06/11 04:02:34;;;;;;;27.58;19.88;;;;;;;17.76;100.00;101326.59;4986410;28;20031;-80
2023/06/11 04:05:00;;;;;;;26.02;19.90;;;;;;;17.75;100.00;101327.53;4986098;28;20396;-79
2023/06/11 04:07:26;;;;;;;26.40;19.55;;;;;;;17.80;100.00;101319.44;4985432;28;20031;-81
2023/06/11 04:09:51;;;;;;;26.75;20.48;;;;;;;17.83;100.00;101329.19;4987019;28;20109;-83
2023/06/11 04:12:17;;;;;;;25.75;19.80;;;;;;;17.84;100.00;101325.59;4984354;28;20545;-83
2023/06/11 04:14:42;;;;;;;27.70;20.40;;;;;;;17.83;100.00;101329.19;4987099;28;20057;-80
2023/06/11 04:17:07;;;;;;;26.83;19.63;;;;;;;17.93;100.00;101323.66;4984573;28;20072;-80
2023/06/11 04:19:33;;;;;;;26.20;19.67;;;;;;;17.88;100.00;101330.88;4985941;28;20149;-82
2023/06/11 04:21:58;;;;;;;26.90;20.50;;;;;;;17.92;100.00;101329.91;4985742;28;20034;-79
2023/06/11 04:24:23;;;;;;;27.38;20.25;;;;;;;17.92;100.00;101331.72;4984839;28;20027;-83
2023/06/11 04:26:48;;;;;;;26.92;20.73;;;;;;;17.99;100.00;101336.03;4987145;28;20040;-75
2023/06/11 04:29:15;;;;;;;27.50;20.85;;;;;;;18.02;100.00;101335.97;4983741;28;20066;-69
2023/06/11 04:31:41;;;;;;;26.67;21.40;;;;;;;18.06;100.00;101336.81;4987119;28;20030;-77
2023/06/11 04:34:08;;;;;;;27.02;21.42;;;;;;;18.08;100.00;101335.84;4984548;28;20065;-71
2023/06/11 04:36:33;;;;;;;27.98;22.08;;;;;;;18.10;100.00;101331.38;4985808;28;20034;-75
2023/06/11 04:39:01;;;;;;;28.92;21.35;;;;;;;18.18;100.00;101327.69;4985430;28;20042;-77
2023/06/11 04:41:29;;;;;;;29.20;21.80;;;;;;;18.21;100.00;101328.47;4984856;28;20086;-75
2023/06/11 04:43:55;;;;;;;28.70;22.63;;;;;;;18.25;100.00;101329.31;4985799;28;20027;-64
2023/06/11 04:46:20;;;;;;;27.60;22.13;;;;;;;18.27;100.00;101332.84;4984168;28;20527;-76
2023/06/11 04:48:50;;;;;;;29.27;22.08;;;;;;;18.31;100.00;101331.00;4986735;28;20030;-75
2023/06/11 04:51:16;;;;;;;27.40;22.15;;;;;;;18.35;100.00;101324.63;4979764;28;20082;-71
2023/06/11 04:53:42;;;;;;;28.40;22.50;;;;;;;18.33;100.00;101330.03;4985469;28;20031;-69
2023/06/11 04:56:08;;;;;;;28.65;22.58;;;;;;;18.41;100.00;101337.91;4983717;28;20030;-75
2023/06/11 04:58:33;;;;;;;28.98;22.23;;;;;;;18.50;100.00;101337.72;4985332;28;20094;-66
2023/06/11 05:00:59;;;;;;;28.05;22.55;;;;;;;18.54;100.00;101335.88;4984839;28;20030;-62
2023/06/11 05:03:36;;;;;;;27.92;22.13;;;;;;;18.55;100.00;101341.19;4983969;28;20070;-72
2023/06/11 05:06:02;;;;;;;27.27;21.75;;;;;;;18.58;100.00;101335.78;4984452;28;20031;-72
2023/06/11 05:08:28;;;;;;;29.88;22.35;;;;;;;18.66;100.00;101340.09;4984533;28;20078;-73
2023/06/11 05:10:55;;;;;;;28.40;22.17;;;;;;;18.76;100.00;101339.84;4985619;28;20038;-75
2023/06/11 05:13:24;;;;;;;28.13;21.52;;;;;;;18.84;100.00;101341.47;4983342;28;20478;-69
2023/06/11 05:15:51;;;;;;;29.35;21.92;;;;;;;18.89;100.00;101343.16;4984421;28;20385;-77
2023/06/11 05:18:16;;;;;;;28.77;21.45;;;;;;;18.98;100.00;101350.09;4982931;28;20062;-71
2023/06/11 05:20:42;;;;;;;27.40;21.13;;;;;;;19.07;100.00;101347.22;4985886;28;20070;-77
2023/06/11 05:23:07;;;;;;;27.17;21.08;;;;;;;19.15;100.00;101347.94;4983334;28;20264;-71
2023/06/11 05:25:33;;;;;;;27.55;21.00;;;;;;;19.18;100.00;101349.66;4984390;28;20434;-65
2023/06/11 05:28:00;;;;;;;26.95;20.85;;;;;;;19.23;100.00;101346.88;4984496;28;20034;-74
2023/06/11 05:30:29;;;;;;;27.25;21.20;;;;;;;19.36;100.00;101345.66;4983532;28;20316;-74
2023/06/11 05:32:56;;;;;;;28.27;21.88;;;;;;;19.49;100.00;101349.78;4985126;28;20458;-73
2023/06/11 05:35:22;;;;;;;28.05;20.98;;;;;;;19.57;100.00;101346.03;4983009;28;20023;-63
2023/06/11 05:37:48;;;;;;;27.70;21.30;;;;;;;19.68;100.00;101343.97;4985702;28;20062;-60
2023/06/11 05:40:13;;;;;;;26.15;20.95;;;;;;;19.79;100.00;101355.34;4982572;28;20113;-62
2023/06/11 05:42:39;;;;;;;25.92;20.02;;;;;;;19.87;100.00;101356.94;4985272;28;20041;-64
2023/06/11 05:45:06;;;;;;;27.80;20.33;;;;;;;19.91;100.00;101353.25;4983492;28;20034;-64
2023/06/11 05:47:32;;;;;;;28.60;19.55;;;;;;;20.03;100.00;101358.28;4984292;28;20109;-65
2023/06/11 05:49:57;;;;;;;26.23;19.50;;;;;;;20.06;100.00;101349.28;4984626;28;20030;-64
2023/06/11 05:52:23;;;;;;;26.25;18.75;;;;;;;20.09;100.00;101347.38;4983259;28;20546;-64
2023/06/11 05:54:48;;;;;;;25.83;17.63;;;;;;;20.19;100.00;101346.19;4985449;28;20038;-63
2023/06/11 05:57:22;;;;;;;26.50;18.42;;;;;;;20.26;100.00;101356.78;4982446;28;20043;-64
2023/06/11 05:59:47;;;;;;;25.33;18.00;;;;;;;20.32;100.00;101354.78;4978492;28;20485;-62
2023/06/11 06:02:13;;;;;;;28.23;17.52;;;;;;;20.41;100.00;101358.13;4985650;28;20153;-63
2023/06/11 06:04:38;;;;;;;26.10;17.20;;;;;;;20.51;100.00;101354.25;4982726;28;20035;-64
2023/06/11 06:07:04;;;;;;;26.45;17.15;;;;;;;20.60;100.00;101347.75;4984446;28;20054;-67
2023/06/11 06:09:29;;;;;;;25.05;16.23;;;;;;;20.69;100.00;101355.56;4983881;28;20053;-62
2023/06/11 06:11:54;;;;;;;24.80;15.82;;;;;;;20.78;100.00;101357.97;4982888;28;20069;-64
2023/06/11 06:14:20;;;;;;;24.45;16.10;;;;;;;20.86;100.00;101349.69;4984944;28;20026;-64
2023/06/11 06:16:45;;;;;;;24.30;15.40;;;;;;;20.95;100.00;101349.38;4982164;28;20038;-62
2023/06/11 06:19:11;;;;;;;23.70;14.93;;;;;;;21.04;100.00;101353.59;4984416;28;20146;-62
2023/06/11 06:21:36;;;;;;;23.02;14.20;;;;;;;21.15;100.00;101355.97;4980935;28;20034;-61
2023/06/11 06:24:02;;;;;;;23.65;14.02;;;;;;;21.26;100.00;101359.19;4982939;28;20409;-61
2023/06/11 06:26:28;;;;;;;22.13;13.23;;;;;;;21.38;100.00;101363.28;4983137;28;20042;-64
2023/06/11 06:28:53;;;;;;;21.70;12.68;;;;;;;21.46;96.45;101365.72;4981862;28;20062;-65
2023/06/11 06:31:20;;;;;;;22.02;12.80;;;;;;;21.56;96.56;101370.75;4984165;28;20038;-64
2023/06/11 06:33:46;;;;;;;20.77;11.75;;;;;;;21.68;95.42;101366.81;4981147;28;20037;-64
2023/06/11 06:36:12;;;;;;;22.88;12.60;;;;;;;21.80;95.55;101372.66;4984581;28;20073;-64
2023/06/11 06:38:37;;;;;;;22.52;12.75;;;;;;;21.86;91.68;101370.66;4982190;28;20030;-62
2023/06/11 06:41:03;;;;;;;21.50;12.15;;;;;;;21.92;94.58;101369.56;4976929;28;20115;-67
2023/06/11 06:43:29;;;;;;;21.17;12.45;;;;;;;22.02;92.95;101370.09;4978710;28;20569;-75
2023/06/11 06:45:54;;;;;;;22.17;12.30;;;;;;;22.09;92.30;101377.03;4979997;28;20042;-79
2023/06/11 06:48:21;;;;;;;21.20;12.38;;;;;;;22.16;89.89;101372.31;4979428;28;20039;-71
2023/06/11 06:50:47;;;;;;;23.23;12.32;;;;;;;22.23;89.13;101372.03;4979159;28;20375;-80
2023/06/11 06:53:14;;;;;;;21.48;12.05;;;;;;;22.29;89.39;101369.16;4977988;28;20033;-62
2023/06/11 06:55:39;;;;;;;22.27;11.88;;;;;;;22.41;89.66;101378.63;4980137;28;20102;-67
2023/06/11 06:58:05;;;;;;;21.35;11.70;;;;;;;22.43;85.21;101378.56;4981318;28;20469;-62
2023/06/11 07:00:30;;;;;;;22.30;11.57;;;;;;;22.51;87.85;101368.34;4977320;28;20038;-63
2023/06/11 07:02:56;;;;;;;21.40;11.77;;;;;;;22.60;84.58;101370.72;4977264;28;20031;-74
2023/06/11 07:05:21;;;;;;;21.27;11.60;;;;;;;22.69;85.01;101365.91;4976429;28;20449;-79
2023/06/11 07:07:46;;;;;;;20.85;11.23;;;;;;;22.75;81.56;101368.38;4976553;28;20030;-80
2023/06/11 07:10:12;;;;;;;20.45;10.77;;;;;;;22.81;80.43;101365.44;4979440;28;20033;-79
2023/06/11 07:12:37;;;;;;;20.23;10.85;;;;;;;22.87;78.34;101367.03;4979035;28;20038;-77
2023/06/11 07:15:04;;;;;;;22.23;11.43;;;;;;;22.98;80.00;101370.19;4980649;28;20026;-79
2023/06/11 07:17:29;;;;;;;20.92;10.98;;;;;;;23.12;80.19;101372.34;4977302;28;20062;-80
2023/06/11 07:19:55;;;;;;;21.35;10.60;;;;;;;23.23;77.56;101372.81;4944053;28;1092991;-76
2023/06/11 07:22:20;;;;;;;22.58;10.90;;;;;;;23.36;77.57;101375.00;4981456;28;20047;-69
2023/06/11 07:24:47;;;;;;;21.33;10.70;;;;;;;23.39;75.42;101373.06;4975139;28;20122;-77
2023/06/11 07:27:13;;;;;;;21.30;10.88;;;;;;;23.53;79.83;101372.47;4979878;28;20086;-61
2023/06/11 07:29:39;;;;;;;20.70;11.32;;;;;;;23.65;78.41;101368.41;4980231;28;20398;-63
2023/06/11 07:32:06;;;;;;;19.85;11.13;;;;;;;23.79;75.00;101371.38;4979872;28;20027;-60
2023/06/11 07:34:32;;;;;;;21.20;10.57;;;;;;;23.87;72.51;101373.81;4979986;28;20425;-62
2023/06/11 07:36:57;;;;;;;20.30;10.45;;;;;;;23.90;72.82;101379.06;4977679;28;20078;-62
2023/06/11 07:39:22;;;;;;;21.25;10.75;;;;;;;24.03;72.22;101374.00;4982859;28;20070;-61
2023/06/11 07:41:48;;;;;;;20.48;10.55;;;;;;;24.12;70.95;101381.69;4978689;28;20070;-65
2023/06/11 07:44:13;;;;;;;20.38;10.48;;;;;;;24.23;71.92;101375.81;4974529;28;20086;-70
2023/06/11 07:46:40;;;;;;;20.95;10.10;;;;;;;24.34;70.17;101373.50;4974038;28;20027;-62
2023/06/11 07:49:07;;;;;;;21.02;10.20;;;;;;;24.48;70.20;101363.88;4977218;28;20055;-62
2023/06/11 07:51:32;;;;;;;20.38;10.13;;;;;;;24.56;67.65;101372.53;4973717;28;20508;-61
2023/06/11 07:54:00;;;;;;;20.13;9.68;;;;;;;24.62;66.41;101372.28;4978281;28;20042;-75
2023/06/11 07:56:26;;;;;;;20.17;9.88;;;;;;;24.67;65.69;101375.66;4979142;28;20046;-76
2023/06/11 07:58:51;;;;;;;20.08;9.75;;;;;;;24.82;68.05;101370.47;4979626;28;20123;-78
2023/06/11 08:01:17;;;;;;;20.73;10.55;;;;;;;25.02;68.01;101381.22;4981042;28;20118;-64
2023/06/11 08:03:43;;;;;;;19.88;10.07;;;;;;;25.16;67.30;101376.97;4981402;28;20019;-68
2023/06/11 08:06:09;;;;;;;20.30;9.85;;;;;;;25.32;66.75;101367.16;4980406;28;20097;-67
2023/06/11 08:08:35;;;;;;;20.60;10.10;;;;;;;25.50;66.18;101369.91;4984764;28;20110;-73
2023/06/11 08:11:01;;;;;;;21.02;9.98;;;;;;;25.57;64.42;101374.06;4986123;28;20114;-78
2023/06/11 08:13:26;;;;;;;20.02;9.80;;;;;;;25.68;64.10;101376.25;4984383;28;20446;-77
2023/06/11 08:15:52;;;;;;;20.70;10.27;;;;;;;25.73;62.71;101375.06;4986766;28;20350;-78
2023/06/11 08:18:17;;;;;;;20.35;9.45;;;;;;;25.83;62.25;101380.00;4978729;28;20110;-73
2023/06/11 08:20:43;;;;;;;19.70;9.88;;;;;;;25.89;61.14;101369.72;4979488;28;20074;-76
2023/06/11 08:23:08;;;;;;;20.23;9.93;;;;;;;26.04;61.54;101376.22;4976490;28;20042;-77
2023/06/11 08:25:36;;;;;;;20.23;10.25;;;;;;;26.10;60.27;101375.88;4986312;28;20487;-66
2023/06/11 08:28:01;;;;;;;21.02;10.05;;;;;;;26.22;60.42;101370.78;4983836;28;20096;-73
2023/06/11 08:30:27;;;;;;;20.02;10.05;;;;;;;26.36;60.53;101367.34;4981002;28;20034;-63
2023/06/11 08:32:52;;;;;;;20.10;9.52;;;;;;;26.38;58.69;101366.28;4973955;28;20038;-64
2023/06/11 08:35:18;;;;;;;19.83;9.70;;;;;;;26.47;59.19;101362.19;4975643;28;20035;-63
2023/06/11 08:37:43;;;;;;;19.90;9.20;;;;;;;26.55;58.88;101368.06;4976308;28;20023;-70
2023/06/11 08:40:09;;;;;;;21.55;9.32;;;;;;;26.62;57.80;101361.34;4981377;28;20366;-61
2023/06/11 08:42:35;;;;;;;21.33;9.82;;;;;;;26.78;58.52;101360.53;4979637;28;20031;-62
2023/06/11 08:45:01;;;;;;;21.23;9.75;;;;;;;26.78;56.29;101355.09;4978769;28;20037;-61
2023/06/11 08:47:30;;;;;;;20.65;9.85;;;;;;;26.87;56.41;101360.03;4976057;28;20105;-66
2023/06/11 08:49:58;;;;;;;20.55;9.45;;;;;;;27.09;57.19;101354.25;4980881;28;20374;-62
2023/06/11 08:52:26;;;;;;;21.67;9.75;;;;;;;27.27;55.86;101359.59;4979941;28;20081;-65
2023/06/11 08:54:52;;;;;;;20.30;9.45;;;;;;;27.41;55.42;101356.09;4977430;28;20259;-64
2023/06/11 08:57:18;;;;;;;19.85;9.70;;;;;;;27.37;55.21;101355.41;4981997;28;20481;-63
2023/06/11 08:59:44;;;;;;;19.63;9.45;;;;;;;27.56;54.18;101354.31;4977041;28;20437;-62
2023/06/11 09:02:09;;;;;;;19.98;9.38;;;;;;;27.64;53.96;101350.19;4978775;28;20121;-63
2023/06/11 09:04:35;;;;;;;20.25;9.25;;;;;;;27.74;53.84;101355.94;4980403;28;20364;-63
2023/06/11 09:07:02;;;;;;;20.15;9.10;;;;;;;27.89;52.91;101350.53;4976726;28;20041;-64
2023/06/11 09:09:27;;;;;;;20.25;9.10;;;;;;;28.02;53.15;101351.59;4976520;28;20074;-62
2023/06/11 09:11:53;;;;;;;19.90;9.25;;;;;;;28.12;52.47;101350.03;4976886;28;20081;-63
2023/06/11 09:14:19;;;;;;;21.05;8.80;;;;;;;28.24;51.62;101356.56;4978695;28;20105;-64
2023/06/11 09:16:47;;;;;;;18.85;8.75;;;;;;;28.41;51.43;101350.06;4978369;28;20054;-65
2023/06/11 09:19:20;;;;;;;26.60;9.55;;;;;;;28.55;50.22;101343.75;4982742;28;20046;-66
2023/06/11 09:21:54;;;;;;;19.17;8.57;;;;;;;28.58;50.13;101340.81;4986030;28;20520;-64
2023/06/11 09:24:20;;;;;;;19.38;8.93;;;;;;;28.75;49.71;101345.22;4979275;28;20026;-65
2023/06/11 09:26:54;;;;;;;18.90;8.13;;;;;;;28.97;48.49;101349.28;4986410;28;20031;-61
2023/06/11 09:29:21;;;;;;;19.02;8.32;;;;;;;29.06;48.02;101329.59;4979219;28;20118;-62
2023/06/11 09:31:46;;;;;;;18.40;8.10;;;;;;;28.94;47.64;101341.31;4985846;28;20065;-65
2023/06/11 09:34:16;;;;;;;19.88;8.60;;;;;;;28.85;48.33;101343.66;4983461;28;20558;-66
2023/06/11 09:36:46;;;;;;;19.15;8.80;;;;;;;28.90;48.21;101337.91;4985414;28;20106;-64
2023/06/11 09:39:13;;;;;;;19.73;8.13;;;;;;;28.92;47.08;101338.69;4982901;28;20043;-63
2023/06/11 09:41:47;;;;;;;19.58;8.30;;;;;;;29.20;48.65;101343.16;4984759;28;20590;-62
2023/06/11 09:44:13;;;;;;;18.10;8.23;;;;;;;29.42;46.02;101340.88;4982967;28;20039;-64
2023/06/11 09:46:39;;;;;;;19.17;8.00;;;;;;;29.72;45.43;101343.34;4984642;28;20037;-63
2023/06/11 09:49:06;;;;;;;18.65;7.90;;;;;;;29.88;44.98;101346.81;4983934;28;20073;-62
2023/06/11 09:51:34;;;;;;;18.77;7.72;;;;;;;29.78;43.65;101348.41;4983827;28;20031;-62
2023/06/11 09:54:00;;;;;;;18.73;7.78;;;;;;;29.66;44.84;101354.69;4984538;28;20068;-65
2023/06/11 09:56:26;;;;;;;18.95;7.70;;;;;;;29.85;43.84;101348.88;4982788;28;20413;-63
2023/06/11 09:58:53;;;;;;;18.85;7.55;;;;;;;30.09;45.48;101349.03;4985700;28;20110;-63
2023/06/11 10:01:19;;;;;;;20.02;8.00;;;;;;;30.53;43.31;101350.44;4981971;28;20041;-65
2023/06/11 10:03:45;;;;;;;17.58;7.15;;;;;;;30.82;40.86;101341.13;4985193;28;20038;-66
2023/06/11 10:06:18;;;;;;;18.85;7.30;;;;;;;31.58;39.26;101350.91;4983075;28;20027;-65
2023/06/11 10:08:48;;;;;;;17.38;7.22;;;;;;;32.77;37.97;101354.41;4985055;28;20093;-67
2023/06/11 10:11:15;;;;;;;17.85;7.22;;;;;;;33.68;35.45;101342.22;4982240;28;20035;-62
2023/06/11 10:13:40;;;;;;;18.50;7.25;;;;;;;35.05;33.06;101356.69;4984600;28;20038;-63
2023/06/11 10:16:09;;;;;;;16.90;7.00;;;;;;;35.70;31.05;101352.56;4983742;28;20126;-66
2023/06/11 10:18:35;;;;;;;16.98;6.75;;;;;;;35.57;31.40;101358.34;4983544;28;20034;-66
2023/06/11 10:21:02;;;;;;;16.77;6.80;;;;;;;36.03;29.49;101350.38;4984007;28;20034;-62
2023/06/11 10:23:53;;;;;;;21.67;6.78;;;;;;;36.39;29.99;101359.72;4982962;28;20381;-67
2023/06/11 10:26:19;;;;;;;15.50;6.30;;;;;;;36.46;29.49;101358.09;4976422;28;20117;-66
2023/06/11 10:28:49;;;;;;;16.30;6.30;;;;;;;37.12;29.36;101347.94;4984877;28;20030;-64
2023/06/11 10:31:28;;;;;;;18.52;6.75;;;;;;;37.66;29.60;101341.53;4981998;28;20125;-67
2023/06/11 10:34:03;;;;;;;18.77;7.18;;;;;;;38.26;27.78;101345.47;4978767;28;20041;-67
2023/06/11 10:36:37;;;;;;;18.85;6.95;;;;;;;38.81;26.92;101341.47;4984472;28;20038;-78
2023/06/11 10:39:05;;;;;;;17.83;6.65;;;;;;;39.35;26.06;101343.84;4983130;28;20038;-73
2023/06/11 10:41:30;;;;;;;18.50;6.72;;;;;;;38.67;26.68;101346.59;4983930;28;20098;-67
2023/06/11 10:43:59;;;;;;;17.48;6.80;;;;;;;38.78;26.81;101342.69;4982181;28;20122;-78
2023/06/11 10:46:25;;;;;;;17.17;6.60;;;;;;;38.45;26.57;101338.88;4984883;28;20093;-79
2023/06/11 10:48:52;;;;;;;16.70;6.22;;;;;;;37.83;27.73;101343.44;4980624;28;20101;-79
2023/06/11 10:51:18;;;;;;;17.08;6.40;;;;;;;38.88;26.02;101337.00;4982359;28;20650;-72
2023/06/11 10:53:58;;;;;;;17.77;6.45;;;;;;;39.41;25.91;101337.66;4981965;28;20114;-63
2023/06/11 10:56:24;;;;;;;18.15;6.38;;;;;;;39.40;25.31;101330.41;4984348;28;20022;-78
2023/06/11 10:58:50;;;;;;;16.80;5.95;;;;;;;39.57;24.29;101337.69;4981610;28;20382;-75
2023/06/11 11:01:20;;;;;;;17.02;6.13;;;;;;;40.15;24.09;101343.22;4984247;28;20023;-78
2023/06/11 11:03:47;;;;;;;15.20;6.10;;;;;;;39.51;24.14;101331.94;4981621;28;20089;-80
2023/06/11 11:06:20;;;;;;;17.40;6.10;;;;;;;39.25;25.29;101334.88;4983480;28;20042;-80